Time;durP1;ratioP1;P1;durP2;ratioP2;P2;SDS_P1;SDS_P2;PMS_P1;PMS_P2;Temp;Humidity;BMP_temperature;BMP_pressure;BME280_temperature;BME280_humidity;BME280_pressure;Samples;Min_cycle;Max_cycle;Signal;HPM_P1;HPM_P2
2022/07/02 00:00:56;;;;;;;2.70;1.33;;;20.50;90.90;;;;;;5029365;28;20393;-78
2022/07/02 00:03:31;;;;;;;3.28;1.40;;;20.50;90.90;;;;;;5030688;28;20041;-79
2022/07/02 00:06:00;;;;;;;2.67;1.30;;;20.50;91.00;;;;;;5029070;28;20036;-77
2022/07/02 00:08:27;;;;;;;2.08;1.30;;;20.50;91.00;;;;;;5028203;28;20028;-79
2022/07/02 00:10:54;;;;;;;1.95;1.20;;;20.40;91.00;;;;;;5033134;28;20028;-80
2022/07/02 00:13:21;;;;;;;3.65;1.17;;;20.50;91.00;;;;;;5034067;28;20018;-79
2022/07/02 00:15:47;;;;;;;3.22;1.42;;;20.50;91.00;;;;;;5034577;28;20034;-78
2022/07/02 00:18:14;;;;;;;2.58;1.40;;;20.50;91.10;;;;;;5033073;28;20029;-79
2022/07/02 00:20:41;;;;;;;2.38;1.33;;;20.50;91.00;;;;;;5033908;28;20032;-78
2022/07/02 00:23:07;;;;;;;1.52;1.10;;;20.50;90.90;;;;;;5032510;28;20029;-79
2022/07/02 00:25:41;;;;;;;2.78;1.30;;;20.50;90.90;;;;;;5030015;28;20032;-78
2022/07/02 00:28:10;;;;;;;1.60;1.17;;;20.60;90.80;;;;;;4995612;28;20030;-79
2022/07/02 00:30:37;;;;;;;2.22;1.40;;;20.60;90.70;;;;;;5012668;28;20104;-79
2022/07/02 00:33:03;;;;;;;1.70;1.10;;;20.60;90.70;;;;;;4994149;28;20026;-78
2022/07/02 00:35:29;;;;;;;2.08;1.30;;;20.60;90.70;;;;;;4994920;28;20496;-79
2022/07/02 00:37:56;;;;;;;2.92;1.35;;;20.50;90.90;;;;;;4994608;28;20030;-79
2022/07/02 00:40:24;;;;;;;2.35;1.30;;;20.60;90.80;;;;;;5012077;28;20108;-79
2022/07/02 00:42:50;;;;;;;2.20;1.40;;;20.50;90.80;;;;;;5001160;28;20056;-78
2022/07/02 00:45:16;;;;;;;2.22;1.17;;;20.50;90.80;;;;;;5030213;28;20547;-79
2022/07/02 00:47:43;;;;;;;2.40;1.40;;;20.50;90.80;;;;;;5030601;28;20097;-78
2022/07/02 00:50:09;;;;;;;2.65;1.15;;;20.50;90.90;;;;;;5030887;28;20076;-79
2022/07/02 00:52:35;;;;;;;1.77;1.20;;;20.50;91.00;;;;;;5030290;28;20489;-79
2022/07/02 00:55:01;;;;;;;2.25;1.20;;;20.50;91.00;;;;;;5030917;28;20068;-79
2022/07/02 00:57:27;;;;;;;3.42;1.40;;;20.50;91.00;;;;;;5032093;28;20029;-79
2022/07/02 00:59:52;;;;;;;3.55;1.30;;;20.40;91.00;;;;;;5031098;28;20473;-79
2022/07/02 01:02:22;;;;;;;2.50;1.10;;;20.40;91.00;;;;;;5031797;28;20025;-79
2022/07/02 01:04:49;;;;;;;2.25;1.10;;;20.40;91.00;;;;;;5031545;28;20040;-78
2022/07/02 01:07:16;;;;;;;1.48;1.08;;;20.40;91.00;;;;;;5032556;28;20032;-79
2022/07/02 01:12:33;;;;;;;1.75;1.27;;;20.50;91.00;;;;;;5031001;28;20108;-79
2022/07/02 01:14:59;;;;;;;2.50;1.45;;;20.50;90.90;;;;;;5030918;28;20519;-79
2022/07/02 01:17:25;;;;;;;3.15;1.25;;;20.50;90.80;;;;;;5029812;28;20034;-79
2022/07/02 01:19:51;;;;;;;2.55;1.30;;;20.50;90.80;;;;;;5030724;28;20021;-79
2022/07/02 01:22:20;;;;;;;1.73;1.05;;;20.50;90.70;;;;;;5029052;28;20036;-78
2022/07/02 01:24:50;;;;;;;2.10;1.20;;;20.50;90.70;;;;;;5028333;28;20556;-77
2022/07/02 01:27:18;;;;;;;2.08;1.15;;;20.50;90.70;;;;;;5028134;28;20037;-78
2022/07/02 01:29:44;;;;;;;1.20;1.02;;;20.50;90.70;;;;;;5029353;28;20029;-78
2022/07/02 01:32:10;;;;;;;2.17;1.27;;;20.50;90.80;;;;;;5028101;28;20068;-78
2022/07/02 01:34:39;;;;;;;2.40;1.15;;;20.40;90.80;;;;;;5022430;28;20021;-79
2022/07/02 01:37:09;;;;;;;2.05;1.23;;;20.50;90.80;;;;;;5014615;28;20026;-79
2022/07/02 01:39:35;;;;;;;1.73;1.02;;;20.50;90.90;;;;;;5014525;28;20022;-79
2022/07/02 01:42:00;;;;;;;1.73;1.20;;;20.40;91.00;;;;;;5031403;28;20029;-78
2022/07/02 01:44:26;;;;;;;2.55;1.20;;;20.40;91.00;;;;;;5031557;28;20033;-79
2022/07/02 01:46:51;;;;;;;1.85;1.10;;;20.40;91.00;;;;;;5013451;28;20026;-79
2022/07/02 01:49:17;;;;;;;2.42;1.45;;;20.50;91.10;;;;;;5014383;28;20028;-79
2022/07/02 01:51:42;;;;;;;2.15;1.10;;;20.40;91.00;;;;;;5030473;28;20746;-79
2022/07/02 01:54:08;;;;;;;2.13;1.20;;;20.40;91.10;;;;;;5031073;28;20033;-78
2022/07/02 01:56:34;;;;;;;1.85;1.08;;;20.40;91.10;;;;;;5013164;28;20030;-79
2022/07/02 01:59:00;;;;;;;1.50;1.13;;;20.40;91.10;;;;;;5030339;28;20026;-78
2022/07/02 02:01:25;;;;;;;3.45;1.30;;;20.40;91.00;;;;;;5030443;28;20022;-79
2022/07/02 02:03:50;;;;;;;2.60;1.15;;;20.40;91.00;;;;;;5030453;28;20025;-78
2022/07/02 02:06:16;;;;;;;2.22;1.20;;;20.40;90.90;;;;;;5013091;28;20611;-79
2022/07/02 02:08:41;;;;;;;3.30;1.33;;;20.50;90.90;;;;;;5013057;28;20132;-79
2022/07/02 02:11:07;;;;;;;2.67;1.23;;;20.50;90.80;;;;;;5012439;28;20124;-79
2022/07/02 02:13:32;;;;;;;2.40;1.50;;;20.50;90.80;;;;;;5012154;28;20048;-79
2022/07/02 02:15:58;;;;;;;1.20;1.00;;;20.50;90.70;;;;;;5008698;28;20386;-79
2022/07/02 02:18:23;;;;;;;1.85;1.08;;;20.50;90.70;;;;;;5008824;28;20030;-78
2022/07/02 02:20:49;;;;;;;1.10;1.00;;;20.50;90.70;;;;;;5008546;28;20036;-78
2022/07/02 02:23:14;;;;;;;1.67;1.20;;;20.50;90.70;;;;;;5008383;28;20075;-78
2022/07/02 02:25:40;;;;;;;1.83;1.00;;;20.50;90.80;;;;;;5008721;28;20104;-78
2022/07/02 02:28:05;;;;;;;2.55;1.20;;;20.40;90.80;;;;;;5009547;28;20112;-78
2022/07/02 02:30:31;;;;;;;2.17;1.08;;;20.40;90.90;;;;;;5008665;28;20037;-79
2022/07/02 02:32:56;;;;;;;1.88;1.20;;;20.50;90.90;;;;;;5007700;28;20038;-78
2022/07/02 02:35:22;;;;;;;1.13;1.02;;;20.40;90.90;;;;;;5008249;28;20038;-78
2022/07/02 02:37:48;;;;;;;3.10;1.13;;;20.40;91.00;;;;;;5008347;28;20105;-78
2022/07/02 02:40:13;;;;;;;1.90;1.20;;;20.40;91.00;;;;;;5008426;28;20577;-80
2022/07/02 02:42:39;;;;;;;1.95;1.08;;;20.40;91.10;;;;;;5007534;28;20022;-77
2022/07/02 02:45:05;;;;;;;1.48;1.13;;;20.40;91.10;;;;;;5009284;28;20033;-78
2022/07/02 02:47:30;;;;;;;2.60;1.20;;;20.40;91.10;;;;;;5012612;28;20026;-77
2022/07/02 02:49:56;;;;;;;2.08;1.15;;;20.40;91.10;;;;;;5013032;28;20034;-79
2022/07/02 02:52:21;;;;;;;1.95;1.20;;;20.40;91.10;;;;;;5012472;28;20030;-77
2022/07/02 02:54:47;;;;;;;2.40;1.30;;;20.40;91.10;;;;;;5011364;28;20121;-79
2022/07/02 02:57:13;;;;;;;1.63;1.13;;;20.40;91.00;;;;;;5011329;28;20025;-78
2022/07/02 02:59:39;;;;;;;2.92;1.40;;;20.40;91.00;;;;;;5011238;28;20603;-77
2022/07/02 03:02:04;;;;;;;1.92;1.20;;;20.40;90.90;;;;;;5011972;28;20025;-79
2022/07/02 03:04:30;;;;;;;2.22;1.20;;;20.40;90.90;;;;;;5026096;28;20033;-78
2022/07/02 03:06:55;;;;;;;1.83;1.20;;;20.40;90.80;;;;;;5032699;28;20052;-79
2022/07/02 03:09:21;;;;;;;1.42;1.00;;;20.40;90.80;;;;;;5031949;28;20409;-78
2022/07/02 03:11:46;;;;;;;1.55;1.08;;;20.40;90.90;;;;;;5032024;28;20021;-79
2022/07/02 03:14:12;;;;;;;1.55;1.20;;;20.40;90.80;;;;;;5033073;28;20030;-79
2022/07/02 03:16:37;;;;;;;2.65;1.35;;;20.40;90.80;;;;;;5032917;28;20029;-79
2022/07/02 03:19:03;;;;;;;1.45;1.10;;;20.40;90.80;;;;;;5033408;28;20495;-79
2022/07/02 03:21:28;;;;;;;3.00;1.38;;;20.40;90.90;;;;;;5031854;28;20235;-78
2022/07/02 03:23:54;;;;;;;1.83;1.20;;;20.40;90.90;;;;;;5032141;28;20037;-79
2022/07/02 03:26:20;;;;;;;1.60;1.10;;;20.40;91.00;;;;;;5031958;28;20029;-78
2022/07/02 03:28:45;;;;;;;1.48;1.05;;;20.40;91.00;;;;;;5031377;28;20825;-78
2022/07/02 03:31:11;;;;;;;1.63;1.10;;;20.40;91.10;;;;;;5030881;28;20021;-78
2022/07/02 03:33:36;;;;;;;2.10;1.15;;;20.40;91.10;;;;;;5029999;28;20085;-79
2022/07/02 03:36:02;;;;;;;1.90;1.20;;;20.40;91.10;;;;;;5032477;28;20025;-79
2022/07/02 03:38:27;;;;;;;2.45;1.30;;;20.30;91.30;;;;;;5035198;28;20021;-78
2022/07/02 03:40:53;;;;;;;2.83;1.17;;;20.30;91.10;;;;;;5032756;28;20032;-78
2022/07/02 03:43:18;;;;;;;1.75;1.10;;;20.40;91.10;;;;;;5033379;28;20022;-79
2022/07/02 03:45:44;;;;;;;2.13;1.10;;;20.30;91.10;;;;;;5032928;28;20048;-79
2022/07/02 03:48:09;;;;;;;2.08;1.20;;;20.40;91.10;;;;;;5032305;28;20104;-79
2022/07/02 03:50:38;;;;;;;1.73;1.00;;;20.40;91.00;;;;;;5032320;28;20397;-79
2022/07/02 03:53:04;;;;;;;1.23;1.00;;;20.30;90.90;;;;;;5033323;28;20484;-78
2022/07/02 03:55:30;;;;;;;2.38;1.25;;;20.40;90.80;;;;;;5032306;28;20040;-79
2022/07/02 03:57:55;;;;;;;1.10;1.00;;;20.50;90.80;;;;;;5032457;28;20033;-79
2022/07/02 04:00:21;;;;;;;1.10;1.00;;;20.50;90.80;;;;;;5033115;28;20505;-79
2022/07/02 04:02:46;;;;;;;1.80;1.20;;;20.40;90.70;;;;;;5032251;28;20030;-79
2022/07/02 04:05:12;;;;;;;2.03;1.08;;;20.40;90.70;;;;;;5031338;28;20036;-79
2022/07/02 04:07:37;;;;;;;1.98;1.20;;;20.40;90.80;;;;;;5030918;28;20480;-78
2022/07/02 04:10:03;;;;;;;4.05;1.30;;;20.40;90.80;;;;;;5031551;28;20108;-79
2022/07/02 04:12:29;;;;;;;2.92;0.98;;;20.40;90.90;;;;;;5029840;28;20041;-78
2022/07/02 04:14:54;;;;;;;1.10;1.00;;;20.40;90.90;;;;;;5022270;28;20044;-77
2022/07/02 04:17:20;;;;;;;2.15;1.10;;;20.30;91.00;;;;;;5012581;28;20029;-78
2022/07/02 04:19:45;;;;;;;1.85;1.10;;;20.40;91.00;;;;;;5013091;28;20121;-79
2022/07/02 04:22:11;;;;;;;1.48;1.05;;;20.40;91.00;;;;;;5030183;28;20408;-77
2022/07/02 04:24:37;;;;;;;1.83;1.15;;;20.30;91.00;;;;;;5012809;28;20021;-79
2022/07/02 04:27:02;;;;;;;2.47;1.15;;;20.30;91.00;;;;;;5013183;28;20488;-79
2022/07/02 04:29:28;;;;;;;2.25;1.10;;;20.30;91.00;;;;;;5013040;28;20022;-78
2022/07/02 04:31:53;;;;;;;1.80;1.20;;;20.40;91.10;;;;;;5012618;28;20079;-78
2022/07/02 04:34:19;;;;;;;1.85;1.15;;;20.30;91.00;;;;;;5012593;28;20022;-78
2022/07/02 04:36:44;;;;;;;1.23;1.00;;;20.30;91.00;;;;;;5030892;28;20538;-79
2022/07/02 04:39:10;;;;;;;2.00;1.25;;;20.40;91.00;;;;;;5030480;28;20057;-78
2022/07/02 04:41:35;;;;;;;1.88;1.27;;;20.30;90.90;;;;;;5012772;28;20040;-78
2022/07/02 04:44:01;;;;;;;1.92;1.30;;;20.40;90.90;;;;;;5012859;28;20025;-77
2022/07/02 04:46:26;;;;;;;1.98;1.10;;;20.40;90.80;;;;;;5012833;28;20057;-78
2022/07/02 04:48:52;;;;;;;2.08;1.08;;;20.40;90.80;;;;;;5030693;28;20075;-78
2022/07/02 04:51:18;;;;;;;1.85;1.20;;;20.40;90.70;;;;;;5029740;28;20512;-78
2022/07/02 04:53:44;;;;;;;1.70;1.00;;;20.40;90.70;;;;;;5029734;28;20674;-78
2022/07/02 04:56:10;;;;;;;1.67;1.08;;;20.40;90.70;;;;;;5030113;28;20048;-78
2022/07/02 04:58:35;;;;;;;1.92;1.02;;;20.40;90.70;;;;;;5029532;28;20017;-79
2022/07/02 05:01:01;;;;;;;1.40;1.10;;;20.40;90.80;;;;;;5019107;28;20029;-78
2022/07/02 05:03:27;;;;;;;1.67;1.20;;;20.40;90.90;;;;;;5030928;28;20021;-79
2022/07/02 05:05:52;;;;;;;2.80;1.25;;;20.40;90.90;;;;;;5031257;28;20810;-78
2022/07/02 05:08:24;;;;;;;1.73;1.10;;;20.40;90.90;;;;;;5031366;28;20029;-79
2022/07/02 05:10:49;;;;;;;2.00;1.10;;;20.40;90.90;;;;;;5030823;28;20025;-79
2022/07/02 05:13:15;;;;;;;1.50;1.10;;;20.40;90.90;;;;;;5030160;28;20175;-78
2022/07/02 05:15:40;;;;;;;1.35;1.02;;;20.40;91.00;;;;;;5032458;28;20108;-79
2022/07/02 05:18:06;;;;;;;1.80;1.08;;;20.30;90.90;;;;;;5030405;28;20030;-79
2022/07/02 05:20:31;;;;;;;1.45;1.02;;;20.40;90.90;;;;;;5031479;28;20043;-78
2022/07/02 05:22:57;;;;;;;1.98;1.25;;;20.40;90.90;;;;;;5028475;28;20103;-78
2022/07/02 05:25:22;;;;;;;2.05;1.10;;;20.40;90.90;;;;;;5028572;28;20539;-78
2022/07/02 05:27:48;;;;;;;2.15;1.23;;;20.40;90.90;;;;;;5010740;28;20121;-78
2022/07/02 05:30:13;;;;;;;1.85;1.20;;;20.40;90.90;;;;;;5029353;28;20025;-78
2022/07/02 05:32:39;;;;;;;2.83;1.35;;;20.40;90.80;;;;;;5029028;28;20030;-78
2022/07/02 05:35:05;;;;;;;1.75;1.10;;;20.40;90.80;;;;;;5026755;28;20092;-76
2022/07/02 05:37:30;;;;;;;1.23;1.10;;;20.40;90.70;;;;;;5011327;28;20036;-77
2022/07/02 05:39:56;;;;;;;1.83;1.20;;;20.40;90.60;;;;;;5011224;28;20025;-77
2022/07/02 05:42:21;;;;;;;2.45;1.33;;;20.40;90.60;;;;;;5029160;28;20052;-77
2022/07/02 05:44:47;;;;;;;2.28;1.10;;;20.40;90.50;;;;;;5012099;28;20372;-77
2022/07/02 05:47:12;;;;;;;1.95;1.10;;;20.40;90.40;;;;;;5012065;28;20080;-78
2022/07/02 05:49:38;;;;;;;1.98;1.30;;;20.40;90.40;;;;;;5011562;28;20021;-78
2022/07/02 05:52:03;;;;;;;1.65;1.20;;;20.40;90.40;;;;;;5011125;28;20025;-77
2022/07/02 05:54:29;;;;;;;1.80;1.10;;;20.40;90.40;;;;;;5018913;28;20026;-79
2022/07/02 05:56:54;;;;;;;2.08;1.58;;;20.40;90.40;;;;;;5009671;28;20113;-77
2022/07/02 05:59:22;;;;;;;1.50;1.08;;;20.40;90.50;;;;;;5009482;28;20029;-78
2022/07/02 06:01:48;;;;;;;1.73;1.13;;;20.40;90.40;;;;;;5026797;28;20022;-76
2022/07/02 06:04:13;;;;;;;1.40;1.20;;;20.40;90.50;;;;;;5008707;28;20512;-77
2022/07/02 06:09:23;;;;;;;1.50;1.00;;;20.40;90.50;;;;;;5027435;28;20550;-77
2022/07/02 06:11:48;;;;;;;1.77;1.30;;;20.40;90.50;;;;;;5009176;28;20029;-77
2022/07/02 06:14:14;;;;;;;1.77;1.00;;;20.40;90.50;;;;;;5029591;28;20047;-78
2022/07/02 06:16:39;;;;;;;2.30;1.20;;;20.40;90.50;;;;;;5012107;28;20034;-78
2022/07/02 06:19:06;;;;;;;2.22;1.20;;;20.40;90.40;;;;;;5029928;28;20032;-78
2022/07/02 06:21:33;;;;;;;2.53;1.20;;;20.40;90.40;;;;;;5014719;28;20037;-76
2022/07/02 06:23:58;;;;;;;2.60;1.20;;;20.40;90.40;;;;;;5015801;28;20029;-78
2022/07/02 06:26:24;;;;;;;1.85;1.20;;;20.50;90.30;;;;;;5027341;28;20079;-78
2022/07/02 06:28:49;;;;;;;2.95;1.30;;;20.50;90.20;;;;;;5032805;28;20052;-78
2022/07/02 06:31:15;;;;;;;2.10;1.10;;;20.50;90.10;;;;;;5032845;28;20116;-78
2022/07/02 06:33:41;;;;;;;1.60;1.17;;;20.50;90.30;;;;;;5032424;28;20048;-78
2022/07/02 06:36:10;;;;;;;1.45;1.00;;;20.60;90.10;;;;;;5033127;28;20459;-79
2022/07/02 06:38:37;;;;;;;2.15;1.33;;;20.50;90.00;;;;;;5006567;28;20026;-78
2022/07/02 06:42:18;;;;;;;1.52;1.15;;;20.50;90.00;;;;;;5023333;28;20026;-77
2022/07/02 06:43:48;;;;;;;1.48;1.20;;;20.50;90.10;;;;;;5018042;28;20032;-77
2022/07/02 06:46:14;;;;;;;1.90;1.20;;;20.50;90.10;;;;;;5001701;28;20033;-77
2022/07/02 06:48:39;;;;;;;1.70;1.20;;;20.50;90.10;;;;;;5006763;28;20040;-77
2022/07/02 06:51:05;;;;;;;1.73;1.23;;;20.50;90.10;;;;;;5015832;28;20025;-78
2022/07/02 06:53:30;;;;;;;1.50;1.00;;;20.50;90.10;;;;;;5002036;28;20533;-76
2022/07/02 06:55:56;;;;;;;1.77;1.10;;;20.50;90.10;;;;;;5003787;28;20060;-77
2022/07/02 06:58:21;;;;;;;2.47;1.27;;;20.50;90.10;;;;;;5012279;28;20392;-77
2022/07/02 07:00:47;;;;;;;2.67;1.27;;;20.50;90.10;;;;;;5027788;28;20056;-77
2022/07/02 07:03:12;;;;;;;2.38;1.13;;;20.50;90.00;;;;;;5006533;28;20505;-77
2022/07/02 07:05:39;;;;;;;1.63;1.15;;;20.50;90.00;;;;;;5010503;28;20081;-77
2022/07/02 07:08:04;;;;;;;1.67;1.20;;;20.50;90.00;;;;;;5002537;28;20034;-77
2022/07/02 07:10:31;;;;;;;2.80;1.23;;;20.60;90.00;;;;;;5030452;28;20554;-78
2022/07/02 07:12:57;;;;;;;1.70;1.20;;;20.60;90.00;;;;;;5012624;28;20029;-77
2022/07/02 07:15:23;;;;;;;2.55;1.20;;;20.60;90.00;;;;;;5029929;28;20029;-76
2022/07/02 07:17:48;;;;;;;2.15;1.30;;;20.60;89.80;;;;;;5030580;28;20029;-77
2022/07/02 07:20:18;;;;;;;1.42;1.15;;;20.70;89.60;;;;;;5030008;28;20527;-78
2022/07/02 07:22:44;;;;;;;1.75;1.17;;;20.70;89.40;;;;;;5030040;28;20026;-77
2022/07/02 07:25:10;;;;;;;2.40;1.20;;;20.80;89.80;;;;;;5030370;28;20569;-78
2022/07/02 07:27:35;;;;;;;1.40;1.02;;;20.70;89.20;;;;;;5030299;28;20091;-77
2022/07/02 07:30:01;;;;;;;1.80;1.13;;;20.80;89.20;;;;;;5012388;28;20021;-77
2022/07/02 07:32:26;;;;;;;1.90;1.30;;;20.60;89.00;;;;;;5011161;28;20452;-78
2022/07/02 07:34:51;;;;;;;2.70;1.30;;;20.70;89.20;;;;;;5012244;28;20029;-77
2022/07/02 07:37:17;;;;;;;1.42;1.17;;;20.70;89.20;;;;;;5029929;28;20501;-77
2022/07/02 07:39:42;;;;;;;1.60;1.20;;;20.70;89.10;;;;;;5029937;28;20039;-77
2022/07/02 07:42:08;;;;;;;1.38;1.10;;;20.70;89.10;;;;;;5010894;28;20633;-78
2022/07/02 07:44:34;;;;;;;1.77;1.27;;;20.70;89.00;;;;;;5029933;28;20057;-78
2022/07/02 07:46:59;;;;;;;1.95;1.27;;;20.80;89.00;;;;;;5011752;28;20479;-77
2022/07/02 07:49:25;;;;;;;2.55;1.52;;;20.80;89.10;;;;;;5011870;28;20025;-78
2022/07/02 07:51:51;;;;;;;2.28;1.27;;;20.80;89.00;;;;;;5011022;28;20068;-75
2022/07/02 07:54:57;;;;;;;1.52;1.27;;;20.80;89.00;;;;;;5015178;23;20039;-77
2022/07/02 07:57:49;;;;;;;1.55;1.20;;;20.80;89.00;;;;;;5007188;28;20104;-77
2022/07/02 08:01:03;;;;;;;;;;;;;;;;;;;;;
2022/07/02 08:03:34;;;;;;;2.47;1.30;;;20.90;89.50;;;;;;4989448;28;20022;-77
2022/07/02 08:06:00;;;;;;;2.55;1.30;;;20.90;88.90;;;;;;4990989;28;20478;-79
2022/07/02 08:08:33;;;;;;;1.58;1.25;;;20.90;88.70;;;;;;4994153;28;20096;-80
2022/07/02 08:11:22;;;;;;;2.47;1.40;;;21.00;88.50;;;;;;4992761;28;20063;-79
2022/07/02 08:13:56;;;;;;;2.22;1.40;;;21.00;88.30;;;;;;4992022;28;20030;-78
2022/07/02 08:16:28;;;;;;;2.30;1.40;;;21.00;88.10;;;;;;4992030;28;20034;-80
2022/07/02 08:19:02;;;;;;;3.65;1.48;;;21.00;88.00;;;;;;4993973;28;20030;-79
2022/07/02 08:21:51;;;;;;;3.58;1.60;;;21.10;87.60;;;;;;4997457;28;20489;-80
2022/07/02 08:24:48;;;;;;;3.95;1.58;;;20.90;87.60;;;;;;4993797;28;20073;-80
2022/07/02 08:30:26;;;;;;;2.15;1.30;;;21.00;87.60;;;;;;4994629;28;20508;-80
2022/07/02 08:36:15;;;;;;;2.78;1.27;;;20.80;87.40;;;;;;4915892;29;20503;-80
2022/07/02 08:38:41;;;;;;;2.08;1.40;;;21.00;87.50;;;;;;4938485;28;20086;-79
2022/07/02 08:44:43;;;;;;;3.22;1.40;;;21.10;87.40;;;;;;5023702;23;20073;-78
2022/07/02 08:50:52;;;;;;;4.47;1.60;;;21.10;87.50;;;;;;4924873;28;20093;-79
2022/07/02 08:57:07;;;;;;;2.85;1.50;;;21.10;87.40;;;;;;4971239;28;20544;-78
2022/07/02 09:03:41;;;;;;;2.78;1.55;;;21.20;87.10;;;;;;4982921;28;20034;-78
2022/07/02 09:06:59;;;;;;;2.67;1.50;;;21.10;86.80;;;;;;4991289;28;20536;-79
2022/07/02 09:21:57;;;;;;;2.13;1.40;;;21.20;86.60;;;;;;5010262;28;20538;-78
2022/07/02 09:24:33;;;;;;;2.20;1.40;;;21.30;86.70;;;;;;4986157;28;20034;-79
2022/07/02 09:27:04;;;;;;;3.05;1.30;;;21.20;86.80;;;;;;4985733;28;20038;-78
2022/07/02 09:29:40;;;;;;;3.22;1.60;;;21.20;87.10;;;;;;4969223;28;20152;-78
2022/07/02 09:32:06;;;;;;;3.60;1.75;;;21.20;87.30;;;;;;4969152;28;20027;-79
2022/07/02 09:34:32;;;;;;;3.13;1.50;;;21.20;87.40;;;;;;4969727;28;20038;-78
2022/07/02 09:36:57;;;;;;;2.60;1.40;;;21.20;87.30;;;;;;4986597;28;20503;-79
2022/07/02 09:39:28;;;;;;;3.67;1.48;;;21.20;87.50;;;;;;4992370;28;20030;-80
2022/07/02 09:41:54;;;;;;;2.30;1.38;;;21.20;87.40;;;;;;4978899;28;20166;-78
2022/07/02 09:44:19;;;;;;;1.85;1.23;;;21.20;87.20;;;;;;4970800;28;20363;-79
2022/07/02 09:46:45;;;;;;;3.00;1.35;;;21.20;87.20;;;;;;4970999;28;20027;-79
2022/07/02 09:49:12;;;;;;;2.80;1.60;;;21.30;87.20;;;;;;4972318;28;20031;-79
2022/07/02 09:51:52;;;;;;;2.42;1.42;;;21.20;87.20;;;;;;4970532;28;20027;-78
2022/07/02 09:54:19;;;;;;;2.05;1.50;;;21.20;87.30;;;;;;4987179;28;20568;-78
2022/07/02 09:56:56;;;;;;;1.92;1.20;;;21.20;87.10;;;;;;4990371;28;20052;-80
2022/07/02 09:59:22;;;;;;;2.50;1.20;;;21.30;87.10;;;;;;4996521;28;20501;-79
2022/07/02 10:01:48;;;;;;;1.85;1.17;;;21.30;87.20;;;;;;5008848;28;20037;-78
2022/07/02 10:04:14;;;;;;;2.15;1.27;;;21.20;87.20;;;;;;4991663;28;20482;-79
2022/07/02 10:06:43;;;;;;;2.65;1.30;;;21.30;87.10;;;;;;4989268;28;20050;-80
2022/07/02 10:09:09;;;;;;;1.75;1.20;;;21.30;87.20;;;;;;4993252;28;20064;-80
2022/07/02 10:11:37;;;;;;;2.00;1.30;;;21.30;87.10;;;;;;4995610;28;20437;-79
2022/07/02 10:14:09;;;;;;;2.30;1.27;;;21.30;87.10;;;;;;5020332;22;20532;-78
2022/07/02 10:16:49;;;;;;;1.95;1.25;;;21.30;87.20;;;;;;5014306;28;20030;-78
2022/07/02 10:19:18;;;;;;;2.03;1.35;;;21.30;87.20;;;;;;5015364;28;20025;-78
2022/07/02 10:22:24;;;;;;;1.42;1.02;;;20.50;86.90;;;;;;5017845;28;20065;-80
2022/07/02 10:25:05;;;;;;;2.63;1.20;;;21.20;87.50;;;;;;4997295;28;20034;-81
2022/07/02 10:27:55;;;;;;;2.25;1.40;;;21.20;87.70;;;;;;4996502;28;20101;-80
2022/07/02 10:31:01;;;;;;;2.33;1.40;;;21.00;87.60;;;;;;4994787;28;20030;-80
2022/07/02 10:34:18;;;;;;;;;;;;;;;;;;;;;
2022/07/02 10:37:12;;;;;;;1.73;1.20;;;21.20;87.80;;;;;;4996588;28;20041;-80
2022/07/02 10:39:47;;;;;;;1.58;1.10;;;22.50;88.30;;;;;;4994660;28;20137;-78
2022/07/02 10:42:15;;;;;;;1.75;1.25;;;21.20;87.40;;;;;;4993067;28;20113;-80
2022/07/02 10:45:24;;;;;;;1.30;1.13;;;21.70;87.60;;;;;;4995149;28;20045;-78
2022/07/02 10:48:06;;;;;;;1.73;1.00;;;21.30;87.10;;;;;;4991715;28;20077;-78
2022/07/02 10:50:35;;;;;;;1.90;1.30;;;21.30;87.20;;;;;;4984577;28;20603;-78
2022/07/02 10:53:12;;;;;;;2.25;1.20;;;21.80;87.60;;;;;;4984980;28;20569;-79
2022/07/02 10:55:51;;;;;;;2.22;1.20;;;21.30;87.40;;;;;;4993763;28;20038;-80
2022/07/02 10:58:37;;;;;;;1.98;1.13;;;21.30;87.50;;;;;;4994401;28;20030;-80
2022/07/02 11:01:14;;;;;;;2.22;1.20;;;21.30;87.40;;;;;;4988074;28;20035;-80
2022/07/02 11:03:53;;;;;;;1.40;1.10;;;21.30;87.40;;;;;;5001840;28;20918;-77
2022/07/02 11:06:25;;;;;;;1.90;1.25;;;21.20;87.40;;;;;;4994583;28;20034;-79
2022/07/02 11:08:52;;;;;;;1.40;1.13;;;21.30;87.50;;;;;;4993406;28;20027;-79
2022/07/02 11:11:32;;;;;;;1.45;1.13;;;21.20;87.40;;;;;;4992971;28;20035;-78
2022/07/02 11:13:57;;;;;;;2.22;1.10;;;21.30;87.30;;;;;;4993061;28;20042;-80
2022/07/02 11:16:29;;;;;;;1.45;1.00;;;21.20;87.40;;;;;;4992977;28;20057;-79
2022/07/02 11:18:56;;;;;;;1.77;1.30;;;21.30;87.40;;;;;;4994282;28;20756;-79
2022/07/02 11:21:23;;;;;;;1.98;1.20;;;21.30;87.50;;;;;;4994177;28;20026;-78
2022/07/02 11:23:50;;;;;;;1.98;1.15;;;21.30;87.50;;;;;;4992862;28;20026;-79
2022/07/02 11:26:18;;;;;;;1.58;1.20;;;21.20;88.10;;;;;;4992788;28;20037;-79
2022/07/02 11:28:43;;;;;;;2.35;1.20;;;21.20;87.60;;;;;;4993149;28;20117;-80
2022/07/02 11:31:10;;;;;;;1.67;1.25;;;21.20;87.70;;;;;;4992071;28;20066;-80
2022/07/02 11:33:40;;;;;;;1.35;1.00;;;21.20;87.70;;;;;;4993874;28;20030;-79
2022/07/02 11:36:06;;;;;;;2.05;1.23;;;21.20;87.50;;;;;;4994069;28;20037;-80
2022/07/02 11:38:45;;;;;;;1.67;1.10;;;21.30;87.50;;;;;;4992745;28;20022;-80
2022/07/02 11:41:22;;;;;;;9.60;1.27;;;21.30;87.30;;;;;;4994635;28;20027;-78
2022/07/02 11:49:30;;;;;;;3.67;1.15;;;21.20;86.90;;;;;;5029929;28;20092;-79
2022/07/02 11:55:04;;;;;;;4.13;1.33;;;21.20;86.50;;;;;;5014089;28;20336;-77
2022/07/02 11:57:34;;;;;;;5.30;1.20;;;21.10;86.40;;;;;;5022879;28;20368;-79
2022/07/02 11:59:59;;;;;;;2.97;1.30;;;21.20;86.40;;;;;;5016251;28;20025;-81
2022/07/02 12:02:37;;;;;;;6.78;1.40;;;21.20;86.50;;;;;;5012325;28;20032;-78
2022/07/02 12:05:21;;;;;;;3.47;1.35;;;21.10;86.40;;;;;;5016170;28;20061;-80
2022/07/02 12:07:47;;;;;;;3.83;1.10;;;21.10;86.40;;;;;;4992497;28;20057;-76
2022/07/02 12:10:14;;;;;;;4.53;1.20;;;21.10;86.50;;;;;;4999506;28;20436;-76
2022/07/02 12:12:40;;;;;;;3.45;1.50;;;21.10;86.60;;;;;;5027782;28;20026;-76
2022/07/02 12:15:07;;;;;;;3.67;1.38;;;21.10;86.60;;;;;;5010633;28;20022;-75
2022/07/02 12:17:36;;;;;;;3.80;1.20;;;21.10;86.70;;;;;;5010646;28;20036;-78
2022/07/02 12:20:06;;;;;;;1.98;1.25;;;21.10;86.80;;;;;;5011705;28;20025;-77
2022/07/02 12:22:33;;;;;;;2.95;1.13;;;21.10;86.80;;;;;;5019223;28;20024;-77
2022/07/02 12:24:59;;;;;;;4.65;1.38;;;21.10;86.60;;;;;;5009617;28;20022;-77
2022/07/02 12:27:25;;;;;;;3.40;1.30;;;21.20;86.50;;;;;;4991751;28;20048;-77
2022/07/02 12:29:55;;;;;;;3.13;1.23;;;21.20;86.60;;;;;;4991948;28;20022;-78
2022/07/02 12:32:31;;;;;;;3.13;1.20;;;21.20;86.60;;;;;;4991136;28;20048;-77
2022/07/02 12:34:59;;;;;;;4.25;1.45;;;21.20;86.70;;;;;;5009546;28;20105;-83
2022/07/02 12:37:30;;;;;;;3.20;1.38;;;21.10;86.90;;;;;;5008764;28;20018;-77
2022/07/02 12:40:10;;;;;;;2.80;1.05;;;21.10;86.80;;;;;;5007943;28;20034;-77
2022/07/02 12:42:56;;;;;;;5.80;1.50;;;21.10;86.90;;;;;;5008004;28;20060;-76
2022/07/02 12:45:30;;;;;;;3.28;1.20;;;21.10;87.30;;;;;;4990833;28;20092;-77
2022/07/02 12:48:01;;;;;;;2.25;1.10;;;21.10;87.20;;;;;;4990341;28;20068;-76
2022/07/02 12:50:29;;;;;;;2.78;1.20;;;21.10;87.10;;;;;;4990494;28;20033;-77
2022/07/02 12:52:56;;;;;;;3.03;1.05;;;21.10;87.10;;;;;;4990042;28;20507;-77
2022/07/02 12:55:21;;;;;;;4.00;1.42;;;21.10;87.20;;;;;;5007857;28;20044;-78
2022/07/02 12:57:47;;;;;;;2.17;1.02;;;21.00;87.10;;;;;;5025380;28;20044;-77
2022/07/02 13:00:13;;;;;;;2.78;1.10;;;21.00;87.10;;;;;;5009565;28;20504;-76
2022/07/02 13:02:38;;;;;;;2.55;1.08;;;21.00;87.20;;;;;;5009657;28;20037;-77
2022/07/02 13:05:04;;;;;;;2.63;1.10;;;21.00;87.40;;;;;;5027754;28;20624;-76
2022/07/02 13:07:29;;;;;;;3.28;1.30;;;21.00;87.50;;;;;;5010406;28;20025;-76
2022/07/02 13:09:55;;;;;;;3.28;1.45;;;21.10;87.50;;;;;;5010359;28;20504;-77
2022/07/02 13:12:21;;;;;;;2.28;1.20;;;21.00;87.40;;;;;;5027440;28;20049;-77
2022/07/02 13:14:46;;;;;;;1.98;1.10;;;21.10;87.40;;;;;;5027968;28;20033;-77
2022/07/02 13:17:15;;;;;;;1.88;1.10;;;21.10;87.30;;;;;;5009938;28;20033;-77
2022/07/02 13:19:42;;;;;;;2.40;1.15;;;21.10;87.10;;;;;;5027401;28;20546;-76
2022/07/02 13:22:10;;;;;;;1.90;1.10;;;21.10;87.10;;;;;;5027303;28;20028;-76
2022/07/02 13:24:36;;;;;;;2.33;1.13;;;21.10;87.10;;;;;;5027614;28;20025;-76
2022/07/02 13:27:02;;;;;;;2.78;1.10;;;21.10;87.10;;;;;;5009778;28;20029;-77
2022/07/02 13:29:27;;;;;;;2.08;1.00;;;21.10;87.10;;;;;;5009196;28;20029;-77
2022/07/02 13:31:53;;;;;;;3.03;1.10;;;21.10;87.20;;;;;;5008642;28;20114;-75
2022/07/02 13:34:19;;;;;;;3.53;1.20;;;21.10;87.30;;;;;;5010043;28;20060;-77
2022/07/02 13:36:44;;;;;;;2.20;1.02;;;21.00;87.30;;;;;;5009732;28;20065;-77
2022/07/02 13:39:10;;;;;;;3.53;1.10;;;21.00;87.40;;;;;;5009547;28;20423;-76
2022/07/02 13:41:35;;;;;;;2.47;1.20;;;21.00;87.50;;;;;;5009691;28;20021;-78
2022/07/02 13:44:01;;;;;;;2.30;1.02;;;21.00;87.50;;;;;;5007811;28;20493;-77